sensor_id;sensor_type;location;lat;lon;timestamp;temperature;humidity
37285;DHT22;23172;53.550;9.964;2024-02-21T00:02:59;11.00;99.90
37285;DHT22;23172;53.550;9.964;2024-02-21T00:08:02;11.00;99.90
37285;DHT22;23172;53.550;9.964;2024-02-21T00:13:06;10.90;99.90
37285;DHT22;23172;53.550;9.964;2024-02-21T00:18:08;11.00;99.90
37285;DHT22;23172;53.550;9.964;2024-02-21T00:23:11;10.90;99.90
37285;DHT22;23172;53.550;9.964;2024-02-21T00:28:14;10.90;99.90
37285;DHT22;23172;53.550;9.964;2024-02-21T00:33:16;10.90;99.90
37285;DHT22;23172;53.550;9.964;2024-02-21T00:38:18;11.00;99.90
37285;DHT22;23172;53.550;9.964;2024-02-21T00:43:22;10.90;99.90
37285;DHT22;23172;53.550;9.964;2024-02-21T00:48:24;10.90;99.90
37285;DHT22;23172;53.550;9.964;2024-02-21T00:53:26;10.90;99.90
37285;DHT22;23172;53.550;9.964;2024-02-21T00:58:29;10.80;99.90
37285;DHT22;23172;53.550;9.964;2024-02-21T01:03:31;10.80;99.90
37285;DHT22;23172;53.550;9.964;2024-02-21T01:08:33;10.90;99.90
37285;DHT22;23172;53.550;9.964;2024-02-21T01:13:36;10.80;99.90
37285;DHT22;23172;53.550;9.964;2024-02-21T01:18:38;10.90;99.90
37285;DHT22;23172;53.550;9.964;2024-02-21T01:23:41;10.90;99.90
37285;DHT22;23172;53.550;9.964;2024-02-21T01:28:44;10.90;99.90
37285;DHT22;23172;53.550;9.964;2024-02-21T01:33:46;10.90;99.90
37285;DHT22;23172;53.550;9.964;2024-02-21T01:38:48;10.90;99.90
37285;DHT22;23172;53.550;9.964;2024-02-21T01:43:51;10.90;99.90
37285;DHT22;23172;53.550;9.964;2024-02-21T01:48:53;10.90;99.90
37285;DHT22;23172;53.550;9.964;2024-02-21T01:53:56;10.90;99.90
37285;DHT22;23172;53.550;9.964;2024-02-21T01:59:00;10.80;99.90
37285;DHT22;23172;53.550;9.964;2024-02-21T02:04:02;10.80;99.90
37285;DHT22;23172;53.550;9.964;2024-02-21T02:09:05;10.80;99.90
37285;DHT22;23172;53.550;9.964;2024-02-21T02:14:09;10.80;99.90
37285;DHT22;23172;53.550;9.964;2024-02-21T02:19:11;10.80;99.90
37285;DHT22;23172;53.550;9.964;2024-02-21T02:24:16;10.80;99.90
37285;DHT22;23172;53.550;9.964;2024-02-21T02:29:18;10.80;99.90
37285;DHT22;23172;53.550;9.964;2024-02-21T02:34:19;10.80;99.90
37285;DHT22;23172;53.550;9.964;2024-02-21T02:39:23;10.80;99.90
37285;DHT22;23172;53.550;9.964;2024-02-21T02:44:25;10.80;99.90
37285;DHT22;23172;53.550;9.964;2024-02-21T02:49:27;10.80;99.90
37285;DHT22;23172;53.550;9.964;2024-02-21T02:54:30;10.80;99.90
37285;DHT22;23172;53.550;9.964;2024-02-21T02:59:32;10.80;99.90
37285;DHT22;23172;53.550;9.964;2024-02-21T03:04:34;10.80;99.90
37285;DHT22;23172;53.550;9.964;2024-02-21T03:09:37;10.80;99.90
37285;DHT22;23172;53.550;9.964;2024-02-21T03:14:39;10.80;99.90
37285;DHT22;23172;53.550;9.964;2024-02-21T03:19:41;10.70;99.90
37285;DHT22;23172;53.550;9.964;2024-02-21T03:24:44;10.70;99.90
37285;DHT22;23172;53.550;9.964;2024-02-21T03:29:46;10.70;99.90
37285;DHT22;23172;53.550;9.964;2024-02-21T03:34:48;10.70;99.90
37285;DHT22;23172;53.550;9.964;2024-02-21T03:39:52;10.80;99.90
37285;DHT22;23172;53.550;9.964;2024-02-21T03:44:53;10.80;99.90
37285;DHT22;23172;53.550;9.964;2024-02-21T03:49:55;10.80;99.90
37285;DHT22;23172;53.550;9.964;2024-02-21T03:54:58;10.90;99.90
37285;DHT22;23172;53.550;9.964;2024-02-21T04:00:00;10.90;99.90
37285;DHT22;23172;53.550;9.964;2024-02-21T04:05:07;10.90;99.90
37285;DHT22;23172;53.550;9.964;2024-02-21T04:10:12;10.90;99.90
37285;DHT22;23172;53.550;9.964;2024-02-21T04:15:14;10.90;99.90
37285;DHT22;23172;53.550;9.964;2024-02-21T04:20:16;10.90;99.90
37285;DHT22;23172;53.550;9.964;2024-02-21T04:25:20;10.90;99.90
37285;DHT22;23172;53.550;9.964;2024-02-21T04:30:22;10.80;99.90
37285;DHT22;23172;53.550;9.964;2024-02-21T04:35:24;10.80;99.90
37285;DHT22;23172;53.550;9.964;2024-02-21T04:40:27;10.80;99.90
37285;DHT22;23172;53.550;9.964;2024-02-21T04:45:29;10.80;99.90
37285;DHT22;23172;53.550;9.964;2024-02-21T04:50:31;10.70;99.90
37285;DHT22;23172;53.550;9.964;2024-02-21T04:55:34;10.60;99.90
37285;DHT22;23172;53.550;9.964;2024-02-21T05:00:36;10.60;99.90
37285;DHT22;23172;53.550;9.964;2024-02-21T05:05:38;10.70;99.90
37285;DHT22;23172;53.550;9.964;2024-02-21T05:10:41;10.70;99.90
37285;DHT22;23172;53.550;9.964;2024-02-21T05:15:43;10.70;99.90
37285;DHT22;23172;53.550;9.964;2024-02-21T05:20:45;10.60;99.90
37285;DHT22;23172;53.550;9.964;2024-02-21T05:25:48;10.60;99.90
37285;DHT22;23172;53.550;9.964;2024-02-21T05:30:50;10.60;99.90
37285;DHT22;23172;53.550;9.964;2024-02-21T05:35:52;10.60;99.90
37285;DHT22;23172;53.550;9.964;2024-02-21T05:40:55;10.60;99.90
37285;DHT22;23172;53.550;9.964;2024-02-21T05:45:57;10.60;99.90
37285;DHT22;23172;53.550;9.964;2024-02-21T05:51:01;10.60;99.90
37285;DHT22;23172;53.550;9.964;2024-02-21T05:56:10;10.60;99.90
37285;DHT22;23172;53.550;9.964;2024-02-21T06:01:12;10.60;99.90
37285;DHT22;23172;53.550;9.964;2024-02-21T06:06:13;10.50;99.90
37285;DHT22;23172;53.550;9.964;2024-02-21T06:11:17;10.50;99.90
37285;DHT22;23172;53.550;9.964;2024-02-21T06:16:19;10.50;99.90
37285;DHT22;23172;53.550;9.964;2024-02-21T06:21:21;10.50;99.90
37285;DHT22;23172;53.550;9.964;2024-02-21T06:26:24;10.60;99.90
37285;DHT22;23172;53.550;9.964;2024-02-21T06:31:27;10.60;99.90
37285;DHT22;23172;53.550;9.964;2024-02-21T06:36:29;10.50;99.90
37285;DHT22;23172;53.550;9.964;2024-02-21T06:41:32;10.50;99.90
37285;DHT22;23172;53.550;9.964;2024-02-21T06:46:35;10.60;99.90
37285;DHT22;23172;53.550;9.964;2024-02-21T06:51:36;10.50;99.90
37285;DHT22;23172;53.550;9.964;2024-02-21T06:56:40;10.60;99.90
37285;DHT22;23172;53.550;9.964;2024-02-21T07:01:45;10.60;99.90
37285;DHT22;23172;53.550;9.964;2024-02-21T07:06:47;10.60;99.90
37285;DHT22;23172;53.550;9.964;2024-02-21T07:11:50;10.70;99.90
37285;DHT22;23172;53.550;9.964;2024-02-21T07:16:52;10.70;99.90
37285;DHT22;23172;53.550;9.964;2024-02-21T07:21:54;10.70;99.90
37285;DHT22;23172;53.550;9.964;2024-02-21T07:26:57;10.70;99.90
37285;DHT22;23172;53.550;9.964;2024-02-21T07:32:05;10.80;99.90
37285;DHT22;23172;53.550;9.964;2024-02-21T07:37:07;10.80;99.90
37285;DHT22;23172;53.550;9.964;2024-02-21T07:42:10;10.80;99.90
37285;DHT22;23172;53.550;9.964;2024-02-21T07:47:12;10.90;99.90
37285;DHT22;23172;53.550;9.964;2024-02-21T07:52:14;10.90;99.90
37285;DHT22;23172;53.550;9.964;2024-02-21T07:57:17;10.90;99.90
37285;DHT22;23172;53.550;9.964;2024-02-21T08:02:19;10.90;99.90
37285;DHT22;23172;53.550;9.964;2024-02-21T08:07:20;10.90;99.90
37285;DHT22;23172;53.550;9.964;2024-02-21T08:12:24;10.90;99.90
37285;DHT22;23172;53.550;9.964;2024-02-21T08:17:25;10.90;99.90
37285;DHT22;23172;53.550;9.964;2024-02-21T08:22:27;11.00;99.90
37285;DHT22;23172;53.550;9.964;2024-02-21T08:27:31;11.10;99.90
37285;DHT22;23172;53.550;9.964;2024-02-21T08:32:33;11.20;99.90
37285;DHT22;23172;53.550;9.964;2024-02-21T08:37:36;11.30;99.90
37285;DHT22;23172;53.550;9.964;2024-02-21T08:42:40;11.30;99.90
37285;DHT22;23172;53.550;9.964;2024-02-21T08:47:42;11.40;99.90
37285;DHT22;23172;53.550;9.964;2024-02-21T08:52:44;11.40;99.90
37285;DHT22;23172;53.550;9.964;2024-02-21T08:57:47;11.40;99.90
37285;DHT22;23172;53.550;9.964;2024-02-21T09:02:49;11.40;99.90
37285;DHT22;23172;53.550;9.964;2024-02-21T09:07:51;11.40;99.90
37285;DHT22;23172;53.550;9.964;2024-02-21T09:12:54;11.40;99.90
37285;DHT22;23172;53.550;9.964;2024-02-21T09:17:56;11.50;99.90
37285;DHT22;23172;53.550;9.964;2024-02-21T09:22:59;11.50;99.90
37285;DHT22;23172;53.550;9.964;2024-02-21T09:28:03;11.50;99.90
37285;DHT22;23172;53.550;9.964;2024-02-21T09:33:06;11.40;99.90
37285;DHT22;23172;53.550;9.964;2024-02-21T09:38:08;11.40;99.90
37285;DHT22;23172;53.550;9.964;2024-02-21T09:43:12;11.40;99.90
37285;DHT22;23172;53.550;9.964;2024-02-21T09:48:38;11.40;99.90
37285;DHT22;23172;53.550;9.964;2024-02-21T09:53:45;11.50;99.90
37285;DHT22;23172;53.550;9.964;2024-02-21T09:58:50;11.50;99.90
37285;DHT22;23172;53.550;9.964;2024-02-21T10:03:51;11.50;99.90
37285;DHT22;23172;53.550;9.964;2024-02-21T10:08:54;11.40;99.90
37285;DHT22;23172;53.550;9.964;2024-02-21T10:14:04;11.40;99.90
37285;DHT22;23172;53.550;9.964;2024-02-21T10:19:06;11.40;99.90
37285;DHT22;23172;53.550;9.964;2024-02-21T10:24:08;11.40;99.90
37285;DHT22;23172;53.550;9.964;2024-02-21T10:29:14;11.40;99.90
37285;DHT22;23172;53.550;9.964;2024-02-21T10:34:17;11.40;99.90
37285;DHT22;23172;53.550;9.964;2024-02-21T10:39:19;11.50;99.90
37285;DHT22;23172;53.550;9.964;2024-02-21T10:44:23;11.50;99.90
37285;DHT22;23172;53.550;9.964;2024-02-21T10:49:27;11.60;99.90
37285;DHT22;23172;53.550;9.964;2024-02-21T10:54:40;11.60;99.90
37285;DHT22;23172;53.550;9.964;2024-02-21T10:59:48;11.60;99.90
37285;DHT22;23172;53.550;9.964;2024-02-21T11:04:51;11.70;99.90
37285;DHT22;23172;53.550;9.964;2024-02-21T11:09:54;11.70;99.90
37285;DHT22;23172;53.550;9.964;2024-02-21T11:15:05;11.80;99.90
37285;DHT22;23172;53.550;9.964;2024-02-21T11:20:13;11.70;99.90
37285;DHT22;23172;53.550;9.964;2024-02-21T11:25:21;11.70;99.90
37285;DHT22;23172;53.550;9.964;2024-02-21T11:30:29;11.70;99.90
37285;DHT22;23172;53.550;9.964;2024-02-21T11:35:32;11.80;99.90
37285;DHT22;23172;53.550;9.964;2024-02-21T11:40:35;11.70;99.90
37285;DHT22;23172;53.550;9.964;2024-02-21T11:45:38;11.60;99.90
37285;DHT22;23172;53.550;9.964;2024-02-21T11:50:40;11.60;99.90
37285;DHT22;23172;53.550;9.964;2024-02-21T11:55:42;11.70;99.90
37285;DHT22;23172;53.550;9.964;2024-02-21T12:00:45;11.70;99.90
37285;DHT22;23172;53.550;9.964;2024-02-21T12:05:50;11.80;99.90
37285;DHT22;23172;53.550;9.964;2024-02-21T12:10:52;11.90;99.90
37285;DHT22;23172;53.550;9.964;2024-02-21T12:15:56;11.80;99.90
37285;DHT22;23172;53.550;9.964;2024-02-21T12:20:58;11.80;99.90
37285;DHT22;23172;53.550;9.964;2024-02-21T12:26:01;11.80;99.90
37285;DHT22;23172;53.550;9.964;2024-02-21T12:31:05;11.70;99.90
37285;DHT22;23172;53.550;9.964;2024-02-21T12:36:07;11.70;99.90
37285;DHT22;23172;53.550;9.964;2024-02-21T12:41:09;11.70;99.90
37285;DHT22;23172;53.550;9.964;2024-02-21T12:46:12;11.70;99.90
37285;DHT22;23172;53.550;9.964;2024-02-21T12:51:14;11.70;99.90
37285;DHT22;23172;53.550;9.964;2024-02-21T12:56:21;11.70;99.90
37285;DHT22;23172;53.550;9.964;2024-02-21T13:01:24;11.80;99.90
37285;DHT22;23172;53.550;9.964;2024-02-21T13:06:27;11.80;99.90
37285;DHT22;23172;53.550;9.964;2024-02-21T13:11:28;11.80;99.90
37285;DHT22;23172;53.550;9.964;2024-02-21T13:16:33;11.90;99.90
37285;DHT22;23172;53.550;9.964;2024-02-21T13:21:39;12.10;99.90
37285;DHT22;23172;53.550;9.964;2024-02-21T13:26:41;12.20;99.90
37285;DHT22;23172;53.550;9.964;2024-02-21T13:31:44;12.20;99.90
37285;DHT22;23172;53.550;9.964;2024-02-21T13:36:46;12.30;99.90
37285;DHT22;23172;53.550;9.964;2024-02-21T13:41:48;12.20;99.90
37285;DHT22;23172;53.550;9.964;2024-02-21T13:46:51;12.20;99.90
37285;DHT22;23172;53.550;9.964;2024-02-21T13:51:54;12.20;99.90
37285;DHT22;23172;53.550;9.964;2024-02-21T13:56:56;12.30;99.90
37285;DHT22;23172;53.550;9.964;2024-02-21T14:01:59;12.30;99.90
37285;DHT22;23172;53.550;9.964;2024-02-21T14:07:01;12.40;99.90
37285;DHT22;23172;53.550;9.964;2024-02-21T14:12:03;12.40;99.90
37285;DHT22;23172;53.550;9.964;2024-02-21T14:17:09;12.50;99.90
37285;DHT22;23172;53.550;9.964;2024-02-21T14:22:11;12.50;99.90
37285;DHT22;23172;53.550;9.964;2024-02-21T14:27:13;12.60;99.90
37285;DHT22;23172;53.550;9.964;2024-02-21T14:32:16;12.70;99.90
37285;DHT22;23172;53.550;9.964;2024-02-21T14:37:18;12.70;99.90
37285;DHT22;23172;53.550;9.964;2024-02-21T14:42:22;12.80;99.90
37285;DHT22;23172;53.550;9.964;2024-02-21T14:47:25;12.70;99.90
37285;DHT22;23172;53.550;9.964;2024-02-21T14:52:27;12.80;99.90
37285;DHT22;23172;53.550;9.964;2024-02-21T14:57:29;12.70;99.90
37285;DHT22;23172;53.550;9.964;2024-02-21T15:02:33;12.70;99.90
37285;DHT22;23172;53.550;9.964;2024-02-21T15:07:35;12.70;99.90
37285;DHT22;23172;53.550;9.964;2024-02-21T15:12:37;12.60;99.90
37285;DHT22;23172;53.550;9.964;2024-02-21T15:17:40;12.50;99.90
37285;DHT22;23172;53.550;9.964;2024-02-21T15:22:43;12.60;99.90
37285;DHT22;23172;53.550;9.964;2024-02-21T15:27:45;12.50;99.90
37285;DHT22;23172;53.550;9.964;2024-02-21T15:32:48;12.50;99.70
37285;DHT22;23172;53.550;9.964;2024-02-21T15:37:50;12.40;99.60
37285;DHT22;23172;53.550;9.964;2024-02-21T15:42:51;12.40;99.40
37285;DHT22;23172;53.550;9.964;2024-02-21T15:47:55;12.40;99.30
37285;DHT22;23172;53.550;9.964;2024-02-21T15:52:57;12.30;98.70
37285;DHT22;23172;53.550;9.964;2024-02-21T15:57:59;12.20;98.60
37285;DHT22;23172;53.550;9.964;2024-02-21T16:03:06;12.20;98.50
37285;DHT22;23172;53.550;9.964;2024-02-21T16:08:08;12.20;98.50
37285;DHT22;23172;53.550;9.964;2024-02-21T16:13:10;12.10;97.90
37285;DHT22;23172;53.550;9.964;2024-02-21T16:18:13;12.00;96.80
37285;DHT22;23172;53.550;9.964;2024-02-21T16:23:20;11.90;96.60
37285;DHT22;23172;53.550;9.964;2024-02-21T16:28:23;11.80;96.80
37285;DHT22;23172;53.550;9.964;2024-02-21T16:33:28;11.80;97.30
37285;DHT22;23172;53.550;9.964;2024-02-21T16:38:30;11.80;97.30
37285;DHT22;23172;53.550;9.964;2024-02-21T16:43:33;11.80;97.10
37285;DHT22;23172;53.550;9.964;2024-02-21T16:48:36;11.80;97.10
37285;DHT22;23172;53.550;9.964;2024-02-21T16:53:38;11.80;97.00
37285;DHT22;23172;53.550;9.964;2024-02-21T16:58:40;11.80;97.10
37285;DHT22;23172;53.550;9.964;2024-02-21T17:03:43;11.80;96.90
37285;DHT22;23172;53.550;9.964;2024-02-21T17:08:46;11.80;96.50
37285;DHT22;23172;53.550;9.964;2024-02-21T17:13:48;11.70;96.40
37285;DHT22;23172;53.550;9.964;2024-02-21T17:18:51;11.70;96.20
37285;DHT22;23172;53.550;9.964;2024-02-21T17:23:53;11.70;95.90
37285;DHT22;23172;53.550;9.964;2024-02-21T17:28:55;11.60;95.90
37285;DHT22;23172;53.550;9.964;2024-02-21T17:33:58;11.60;95.70
37285;DHT22;23172;53.550;9.964;2024-02-21T17:39:00;11.60;95.60
37285;DHT22;23172;53.550;9.964;2024-02-21T17:44:02;11.50;96.20
37285;DHT22;23172;53.550;9.964;2024-02-21T17:49:05;11.60;95.90
37285;DHT22;23172;53.550;9.964;2024-02-21T17:54:07;11.50;95.90
37285;DHT22;23172;53.550;9.964;2024-02-21T17:59:09;11.40;95.90
37285;DHT22;23172;53.550;9.964;2024-02-21T18:04:14;11.40;96.00
37285;DHT22;23172;53.550;9.964;2024-02-21T18:09:16;11.40;96.00
37285;DHT22;23172;53.550;9.964;2024-02-21T18:14:18;11.30;96.10
37285;DHT22;23172;53.550;9.964;2024-02-21T18:19:22;11.30;96.20
37285;DHT22;23172;53.550;9.964;2024-02-21T18:24:24;11.20;96.20
37285;DHT22;23172;53.550;9.964;2024-02-21T18:29:26;11.20;96.40
37285;DHT22;23172;53.550;9.964;2024-02-21T18:34:29;11.20;96.60
37285;DHT22;23172;53.550;9.964;2024-02-21T18:39:32;11.10;96.70
37285;DHT22;23172;53.550;9.964;2024-02-21T18:44:34;11.10;96.80
37285;DHT22;23172;53.550;9.964;2024-02-21T18:49:38;11.00;97.20
37285;DHT22;23172;53.550;9.964;2024-02-21T18:54:44;11.00;97.00
37285;DHT22;23172;53.550;9.964;2024-02-21T18:59:47;11.00;97.10
37285;DHT22;23172;53.550;9.964;2024-02-21T19:04:50;10.90;97.10
37285;DHT22;23172;53.550;9.964;2024-02-21T19:09:52;10.90;97.20
37285;DHT22;23172;53.550;9.964;2024-02-21T19:14:53;10.90;97.20
37285;DHT22;23172;53.550;9.964;2024-02-21T19:19:57;10.90;97.20
37285;DHT22;23172;53.550;9.964;2024-02-21T19:24:59;10.90;97.30
37285;DHT22;23172;53.550;9.964;2024-02-21T19:30:07;10.90;97.40
37285;DHT22;23172;53.550;9.964;2024-02-21T19:35:12;10.90;97.40
37285;DHT22;23172;53.550;9.964;2024-02-21T19:40:14;10.90;97.40
37285;DHT22;23172;53.550;9.964;2024-02-21T19:45:17;11.00;97.50
37285;DHT22;23172;53.550;9.964;2024-02-21T19:50:20;11.00;97.40
37285;DHT22;23172;53.550;9.964;2024-02-21T19:55:22;11.00;97.30
37285;DHT22;23172;53.550;9.964;2024-02-21T20:00:24;10.90;97.20
37285;DHT22;23172;53.550;9.964;2024-02-21T20:05:27;11.00;97.20
37285;DHT22;23172;53.550;9.964;2024-02-21T20:10:29;11.00;97.10
37285;DHT22;23172;53.550;9.964;2024-02-21T20:15:31;11.00;97.30
37285;DHT22;23172;53.550;9.964;2024-02-21T20:20:34;11.10;96.80
37285;DHT22;23172;53.550;9.964;2024-02-21T20:25:36;11.10;96.40
37285;DHT22;23172;53.550;9.964;2024-02-21T20:30:38;11.10;95.90
37285;DHT22;23172;53.550;9.964;2024-02-21T20:35:41;11.10;95.90
37285;DHT22;23172;53.550;9.964;2024-02-21T20:40:43;11.20;96.30
37285;DHT22;23172;53.550;9.964;2024-02-21T20:45:45;11.20;96.50
37285;DHT22;23172;53.550;9.964;2024-02-21T20:50:49;11.20;96.60
37285;DHT22;23172;53.550;9.964;2024-02-21T20:55:51;11.20;97.30
37285;DHT22;23172;53.550;9.964;2024-02-21T21:00:53;11.10;97.00
37285;DHT22;23172;53.550;9.964;2024-02-21T21:05:56;11.10;97.10
37285;DHT22;23172;53.550;9.964;2024-02-21T21:10:57;11.00;97.40
37285;DHT22;23172;53.550;9.964;2024-02-21T21:15:59;11.00;97.60
37285;DHT22;23172;53.550;9.964;2024-02-21T21:21:03;10.80;98.00
37285;DHT22;23172;53.550;9.964;2024-02-21T21:26:05;10.80;98.40
37285;DHT22;23172;53.550;9.964;2024-02-21T21:31:07;10.80;98.60
37285;DHT22;23172;53.550;9.964;2024-02-21T21:36:10;10.70;98.70
37285;DHT22;23172;53.550;9.964;2024-02-21T21:41:12;10.60;98.90
37285;DHT22;23172;53.550;9.964;2024-02-21T21:46:15;10.70;99.10
37285;DHT22;23172;53.550;9.964;2024-02-21T21:51:19;10.60;99.20
37285;DHT22;23172;53.550;9.964;2024-02-21T21:56:21;10.50;99.40
37285;DHT22;23172;53.550;9.964;2024-02-21T22:01:27;10.60;99.50
37285;DHT22;23172;53.550;9.964;2024-02-21T22:06:30;10.60;99.60
37285;DHT22;23172;53.550;9.964;2024-02-21T22:11:32;10.60;99.70
37285;DHT22;23172;53.550;9.964;2024-02-21T22:16:34;10.50;99.80
37285;DHT22;23172;53.550;9.964;2024-02-21T22:21:39;10.50;99.80
37285;DHT22;23172;53.550;9.964;2024-02-21T22:26:41;10.50;99.90
37285;DHT22;23172;53.550;9.964;2024-02-21T22:31:43;10.50;99.90
37285;DHT22;23172;53.550;9.964;2024-02-21T22:36:46;10.50;99.90
37285;DHT22;23172;53.550;9.964;2024-02-21T22:41:48;10.50;99.90
37285;DHT22;23172;53.550;9.964;2024-02-21T22:46:50;10.50;99.90
37285;DHT22;23172;53.550;9.964;2024-02-21T22:51:53;10.50;99.90
37285;DHT22;23172;53.550;9.964;2024-02-21T22:56:56;10.50;99.90
37285;DHT22;23172;53.550;9.964;2024-02-21T23:01:58;10.50;99.90
37285;DHT22;23172;53.550;9.964;2024-02-21T23:07:01;10.50;99.90
37285;DHT22;23172;53.550;9.964;2024-02-21T23:12:04;10.50;99.90
37285;DHT22;23172;53.550;9.964;2024-02-21T23:17:06;10.40;99.90
37285;DHT22;23172;53.550;9.964;2024-02-21T23:22:09;10.40;99.90
37285;DHT22;23172;53.550;9.964;2024-02-21T23:27:11;10.40;99.90
37285;DHT22;23172;53.550;9.964;2024-02-21T23:32:13;10.30;99.90
37285;DHT22;23172;53.550;9.964;2024-02-21T23:37:23;10.30;99.90
37285;DHT22;23172;53.550;9.964;2024-02-21T23:42:25;10.30;99.90
37285;DHT22;23172;53.550;9.964;2024-02-21T23:47:27;10.20;99.90
37285;DHT22;23172;53.550;9.964;2024-02-21T23:52:30;10.30;99.90
37285;DHT22;23172;53.550;9.964;2024-02-21T23:57:39;10.30;99.90
